LAN926 SPJC-SPZO
Flight info
| Callsign | LAN926 |
|---|---|
| Flight time | 0h 54m |
| Altitude | 35000 |
| Route | JCL DCT LPA DCT AND DCT ZCO |
| Aircraft | A320/M-SDE3FGHIRWY/LB1 |
Departure
| Time | 2026-04-29 11:32 |
|---|---|
| Airport | Jorge Chávez International Airport (SPJC) |
Arrival
| Time | 2026-04-29 12:27 |
|---|---|
| Airport | Alejandro Velasco Astete International Airport (SPZO) |
| Time | Latitude | Longitude | Altitude | Speed | Heading |
|---|---|---|---|---|---|
| 2026-04-29 11:27 | -12.01511 | -77.11556 | 54 ft | 10 kts | 334° |
| 2026-04-29 11:27 | -12.01448 | -77.11586 | 53 ft | 10 kts | 335° |
| 2026-04-29 11:28 | -12.01381 | -77.11617 | 51 ft | 13 kts | 335° |
| 2026-04-29 11:28 | -12.01281 | -77.11667 | 49 ft | 19 kts | 334° |
| 2026-04-29 11:28 | -12.01151 | -77.11732 | 46 ft | 23 kts | 333° |
| 2026-04-29 11:28 | -12.00994 | -77.11808 | 43 ft | 26 kts | 334° |
| 2026-04-29 11:29 | -12.00833 | -77.11888 | 40 ft | 18 kts | 333° |
| 2026-04-29 11:29 | -12.00729 | -77.11939 | 37 ft | 9 kts | 333° |
| 2026-04-29 11:29 | -12.00693 | -77.11968 | 37 ft | 7 kts | 309° |
| 2026-04-29 11:29 | -12.00680 | -77.12028 | 36 ft | 15 kts | 258° |
| 2026-04-29 11:30 | -12.00755 | -77.12110 | 34 ft | 17 kts | 195° |
| 2026-04-29 11:30 | -12.00838 | -77.12095 | 35 ft | 3 kts | 154° |
| 2026-04-29 11:31 | -12.01030 | -77.12000 | 40 ft | 69 kts | 154° |
| 2026-04-29 11:32 | -12.01659 | -77.11691 | 54 ft | 130 kts | 154° |
| 2026-04-29 11:32 | -12.02611 | -77.11224 | 220 ft | 161 kts | 156° |
| 2026-04-29 11:32 | -12.03602 | -77.10734 | 995 ft | 156 kts | 155° |
| 2026-04-29 11:32 | -12.04604 | -77.10248 | 1520 ft | 169 kts | 155° |
| 2026-04-29 11:33 | -12.05714 | -77.09672 | 1910 ft | 188 kts | 146° |
| 2026-04-29 11:33 | -12.06751 | -77.08734 | 2284 ft | 211 kts | 135° |
| 2026-04-29 11:33 | -12.07826 | -77.07599 | 2716 ft | 233 kts | 134° |
| 2026-04-29 11:33 | -12.09017 | -77.06374 | 3192 ft | 256 kts | 135° |
| 2026-04-29 11:34 | -12.10324 | -77.05067 | 3883 ft | 267 kts | 136° |
| 2026-04-29 11:34 | -12.11692 | -77.03739 | 4696 ft | 275 kts | 136° |
| 2026-04-29 11:34 | -12.13104 | -77.02395 | 5553 ft | 279 kts | 137° |
| 2026-04-29 11:34 | -12.14536 | -77.01048 | 6422 ft | 281 kts | 136° |
| 2026-04-29 11:35 | -12.15810 | -76.99509 | 7097 ft | 288 kts | 120° |
| 2026-04-29 11:35 | -12.16623 | -76.97625 | 7808 ft | 293 kts | 110° |
| 2026-04-29 11:35 | -12.17413 | -76.95680 | 8584 ft | 296 kts | 113° |
| 2026-04-29 11:35 | -12.18263 | -76.93762 | 9447 ft | 297 kts | 115° |
| 2026-04-29 11:36 | -12.19141 | -76.91833 | 10092 ft | 304 kts | 114° |
| 2026-04-29 11:36 | -12.20020 | -76.89833 | 10704 ft | 311 kts | 113° |
| 2026-04-29 11:36 | -12.20887 | -76.87790 | 11359 ft | 315 kts | 112° |
| 2026-04-29 11:36 | -12.21741 | -76.85717 | 12008 ft | 321 kts | 112° |
| 2026-04-29 11:37 | -12.22676 | -76.83555 | 12170 ft | 343 kts | 114° |
| 2026-04-29 11:37 | -12.23704 | -76.81279 | 12428 ft | 359 kts | 114° |
| 2026-04-29 11:37 | -12.24768 | -76.78947 | 12988 ft | 365 kts | 114° |
| 2026-04-29 11:37 | -12.25842 | -76.76576 | 13612 ft | 369 kts | 114° |
| 2026-04-29 11:38 | -12.26901 | -76.74210 | 14179 ft | 372 kts | 114° |
| 2026-04-29 11:38 | -12.27971 | -76.71794 | 14749 ft | 374 kts | 114° |
| 2026-04-29 11:38 | -12.29042 | -76.69357 | 15319 ft | 377 kts | 114° |
| 2026-04-29 11:38 | -12.30111 | -76.66906 | 15881 ft | 379 kts | 114° |
| 2026-04-29 11:39 | -12.31200 | -76.64404 | 16467 ft | 381 kts | 113° |
| 2026-04-29 11:39 | -12.32269 | -76.61951 | 17016 ft | 384 kts | 114° |
| 2026-04-29 11:39 | -12.33362 | -76.59448 | 17579 ft | 386 kts | 114° |
| 2026-04-29 11:39 | -12.34460 | -76.56935 | 18137 ft | 388 kts | 114° |
| 2026-04-29 11:40 | -12.35567 | -76.54404 | 18632 ft | 391 kts | 114° |
| 2026-04-29 11:40 | -12.36685 | -76.51853 | 19099 ft | 394 kts | 114° |
| 2026-04-29 11:40 | -12.37805 | -76.49295 | 19603 ft | 396 kts | 114° |
| 2026-04-29 11:40 | -12.38939 | -76.46711 | 20091 ft | 399 kts | 114° |
| 2026-04-29 11:41 | -12.40076 | -76.44115 | 20583 ft | 402 kts | 114° |
| 2026-04-29 11:41 | -12.41224 | -76.41495 | 21065 ft | 404 kts | 114° |
| 2026-04-29 11:41 | -12.42375 | -76.38860 | 21496 ft | 407 kts | 114° |
| 2026-04-29 11:41 | -12.43526 | -76.36214 | 21939 ft | 409 kts | 114° |
| 2026-04-29 11:42 | -12.44687 | -76.33548 | 22412 ft | 412 kts | 114° |
| 2026-04-29 11:42 | -12.45858 | -76.30858 | 22864 ft | 414 kts | 114° |
| 2026-04-29 11:42 | -12.47036 | -76.28159 | 23297 ft | 417 kts | 114° |
| 2026-04-29 11:42 | -12.48222 | -76.25442 | 23703 ft | 420 kts | 114° |
| 2026-04-29 11:43 | -12.49416 | -76.22703 | 24032 ft | 423 kts | 114° |
| 2026-04-29 11:43 | -12.50617 | -76.19944 | 24376 ft | 426 kts | 114° |
| 2026-04-29 11:43 | -12.51828 | -76.17160 | 24682 ft | 430 kts | 114° |
| 2026-04-29 11:43 | -12.53050 | -76.14350 | 24976 ft | 433 kts | 114° |
| 2026-04-29 11:44 | -12.54275 | -76.11530 | 25322 ft | 434 kts | 114° |
| 2026-04-29 11:44 | -12.55501 | -76.08701 | 25602 ft | 437 kts | 114° |
| 2026-04-29 11:44 | -12.56740 | -76.05846 | 25928 ft | 440 kts | 114° |
| 2026-04-29 11:44 | -12.57989 | -76.02972 | 26193 ft | 444 kts | 114° |
| 2026-04-29 11:45 | -12.59249 | -76.00077 | 26454 ft | 447 kts | 114° |
| 2026-04-29 11:45 | -12.60522 | -75.97154 | 26711 ft | 450 kts | 113° |
| 2026-04-29 11:45 | -12.61802 | -75.94217 | 26975 ft | 454 kts | 114° |
| 2026-04-29 11:45 | -12.63091 | -75.91256 | 27288 ft | 457 kts | 113° |
| 2026-04-29 11:46 | -12.64388 | -75.88269 | 27555 ft | 460 kts | 113° |
| 2026-04-29 11:46 | -12.65689 | -75.85265 | 27846 ft | 463 kts | 113° |
| 2026-04-29 11:46 | -12.66995 | -75.82245 | 28121 ft | 465 kts | 113° |
| 2026-04-29 11:46 | -12.68310 | -75.79208 | 28355 ft | 468 kts | 113° |
| 2026-04-29 11:47 | -12.69634 | -75.76162 | 28664 ft | 470 kts | 114° |
| 2026-04-29 11:47 | -12.70968 | -75.73093 | 28907 ft | 473 kts | 114° |
| 2026-04-29 11:47 | -12.72308 | -75.70010 | 29141 ft | 475 kts | 113° |
| 2026-04-29 11:47 | -12.73654 | -75.66907 | 29375 ft | 478 kts | 113° |
| 2026-04-29 11:48 | -12.75004 | -75.63788 | 29625 ft | 481 kts | 113° |
| 2026-04-29 11:48 | -12.76362 | -75.60643 | 29828 ft | 483 kts | 112° |
| 2026-04-29 11:48 | -12.77719 | -75.57490 | 30040 ft | 486 kts | 112° |
| 2026-04-29 11:48 | -12.79084 | -75.54314 | 30234 ft | 488 kts | 112° |
| 2026-04-29 11:49 | -12.80460 | -75.51122 | 30398 ft | 490 kts | 112° |
| 2026-04-29 11:49 | -12.81842 | -75.47924 | 30642 ft | 491 kts | 113° |
| 2026-04-29 11:49 | -12.83225 | -75.44730 | 30891 ft | 491 kts | 113° |
| 2026-04-29 11:49 | -12.84591 | -75.41576 | 31134 ft | 491 kts | 113° |
| 2026-04-29 11:50 | -12.85973 | -75.38379 | 31423 ft | 490 kts | 113° |
| 2026-04-29 11:50 | -12.87366 | -75.35148 | 31714 ft | 490 kts | 113° |
| 2026-04-29 11:50 | -12.88725 | -75.31995 | 31951 ft | 490 kts | 113° |
| 2026-04-29 11:50 | -12.90123 | -75.28751 | 32198 ft | 491 kts | 113° |
| 2026-04-29 11:51 | -12.91499 | -75.25554 | 32431 ft | 491 kts | 113° |
| 2026-04-29 11:51 | -12.92880 | -75.22344 | 32643 ft | 492 kts | 113° |
| 2026-04-29 11:51 | -12.94263 | -75.19130 | 32903 ft | 493 kts | 113° |
| 2026-04-29 11:51 | -12.95647 | -75.15911 | 33142 ft | 494 kts | 113° |
| 2026-04-29 11:52 | -12.97035 | -75.12687 | 33380 ft | 494 kts | 113° |
| 2026-04-29 11:52 | -12.98423 | -75.09463 | 33625 ft | 495 kts | 113° |
| 2026-04-29 11:52 | -12.99811 | -75.06237 | 33885 ft | 495 kts | 112° |
| 2026-04-29 11:52 | -13.01200 | -75.03006 | 34164 ft | 495 kts | 112° |
| 2026-04-29 11:53 | -13.02586 | -74.99780 | 34423 ft | 494 kts | 112° |
| 2026-04-29 11:53 | -13.03968 | -74.96558 | 34671 ft | 494 kts | 112° |
| 2026-04-29 11:53 | -13.05350 | -74.93336 | 34962 ft | 493 kts | 112° |
| 2026-04-29 11:53 | -13.06728 | -74.90115 | 35193 ft | 493 kts | 112° |
| 2026-04-29 11:54 | -13.08107 | -74.86893 | 35307 ft | 493 kts | 112° |
| 2026-04-29 11:54 | -13.09469 | -74.83716 | 35338 ft | 492 kts | 112° |
| 2026-04-29 11:54 | -13.12221 | -74.77302 | 35348 ft | 490 kts | 112° |
| 2026-04-29 11:55 | -13.14959 | -74.70885 | 35348 ft | 491 kts | 112° |
| 2026-04-29 11:55 | -13.17704 | -74.64466 | 35363 ft | 491 kts | 112° |
| 2026-04-29 11:56 | -13.20457 | -74.58050 | 35373 ft | 492 kts | 112° |
| 2026-04-29 11:56 | -13.23205 | -74.51622 | 35380 ft | 492 kts | 112° |
| 2026-04-29 11:57 | -13.25944 | -74.45191 | 35391 ft | 492 kts | 112° |
| 2026-04-29 11:57 | -13.28689 | -74.38755 | 35396 ft | 492 kts | 112° |
| 2026-04-29 11:58 | -13.31429 | -74.32325 | 35407 ft | 491 kts | 112° |
| 2026-04-29 11:58 | -13.34152 | -74.25914 | 35411 ft | 490 kts | 112° |
| 2026-04-29 11:59 | -13.36878 | -74.19505 | 35395 ft | 489 kts | 112° |
| 2026-04-29 11:59 | -13.39596 | -74.13110 | 35384 ft | 489 kts | 112° |
| 2026-04-29 12:00 | -13.42309 | -74.06700 | 35351 ft | 489 kts | 112° |
| 2026-04-29 12:00 | -13.45023 | -74.00296 | 35343 ft | 489 kts | 112° |
| 2026-04-29 12:01 | -13.47740 | -73.93891 | 35362 ft | 488 kts | 112° |
| 2026-04-29 12:01 | -13.50011 | -73.88542 | 35348 ft | 487 kts | 112° |
| 2026-04-29 12:02 | -13.52721 | -73.82158 | 35351 ft | 487 kts | 112° |
| 2026-04-29 12:02 | -13.55418 | -73.75771 | 35331 ft | 487 kts | 112° |
| 2026-04-29 12:03 | -13.58093 | -73.69431 | 35332 ft | 487 kts | 111° |
| 2026-04-29 12:03 | -13.60782 | -73.63046 | 35374 ft | 486 kts | 112° |
| 2026-04-29 12:04 | -13.63466 | -73.56673 | 35438 ft | 486 kts | 111° |
| 2026-04-29 12:04 | -13.66167 | -73.50260 | 35509 ft | 485 kts | 111° |
| 2026-04-29 12:05 | -13.68679 | -73.43836 | 35560 ft | 482 kts | 102° |
| 2026-04-29 12:05 | -13.69295 | -73.37063 | 35553 ft | 474 kts | 81° |
| 2026-04-29 12:06 | -13.67673 | -73.30652 | 35544 ft | 464 kts | 61° |
| 2026-04-29 12:06 | -13.64680 | -73.24813 | 35507 ft | 462 kts | 58° |
| 2026-04-29 12:07 | -13.61649 | -73.18988 | 35439 ft | 462 kts | 58° |
| 2026-04-29 12:07 | -13.58612 | -73.13150 | 35373 ft | 463 kts | 58° |
| 2026-04-29 12:08 | -13.57103 | -73.10255 | 35256 ft | 463 kts | 58° |
| 2026-04-29 12:08 | -13.55585 | -73.07345 | 35260 ft | 463 kts | 58° |
| 2026-04-29 12:08 | -13.52542 | -73.01501 | 35262 ft | 463 kts | 58° |
| 2026-04-29 12:09 | -13.49496 | -72.95661 | 35266 ft | 464 kts | 58° |
| 2026-04-29 12:09 | -13.46491 | -72.89794 | 35255 ft | 466 kts | 64° |
| 2026-04-29 12:10 | -13.44819 | -72.83352 | 35260 ft | 473 kts | 82° |
| 2026-04-29 12:10 | -13.44301 | -72.76612 | 35245 ft | 473 kts | 83° |
| 2026-04-29 12:11 | -13.43771 | -72.69875 | 35158 ft | 471 kts | 83° |
| 2026-04-29 12:11 | -13.43508 | -72.66563 | 34910 ft | 460 kts | 83° |
| 2026-04-29 12:11 | -13.43247 | -72.63322 | 34687 ft | 452 kts | 82° |
| 2026-04-29 12:12 | -13.42988 | -72.60115 | 34450 ft | 448 kts | 83° |
| 2026-04-29 12:12 | -13.42733 | -72.56951 | 34230 ft | 442 kts | 83° |
| 2026-04-29 12:12 | -13.42481 | -72.53822 | 33965 ft | 438 kts | 83° |
| 2026-04-29 12:12 | -13.42231 | -72.50712 | 33696 ft | 436 kts | 83° |
| 2026-04-29 12:13 | -13.41982 | -72.47620 | 33441 ft | 434 kts | 83° |
| 2026-04-29 12:13 | -13.41736 | -72.44525 | 32750 ft | 438 kts | 83° |
| 2026-04-29 12:13 | -13.41486 | -72.41399 | 32176 ft | 437 kts | 83° |
| 2026-04-29 12:13 | -13.41241 | -72.38323 | 31546 ft | 428 kts | 83° |
| 2026-04-29 12:14 | -13.40996 | -72.35296 | 30745 ft | 424 kts | 83° |
| 2026-04-29 12:14 | -13.40752 | -72.32296 | 29900 ft | 420 kts | 84° |
| 2026-04-29 12:14 | -13.40556 | -72.29321 | 29070 ft | 414 kts | 86° |
| 2026-04-29 12:14 | -13.40420 | -72.26444 | 28509 ft | 403 kts | 86° |
| 2026-04-29 12:15 | -13.40287 | -72.23608 | 27953 ft | 392 kts | 86° |
| 2026-04-29 12:15 | -13.40157 | -72.20846 | 27398 ft | 382 kts | 86° |
| 2026-04-29 12:15 | -13.40027 | -72.18126 | 26967 ft | 372 kts | 86° |
| 2026-04-29 12:15 | -13.39902 | -72.15510 | 26477 ft | 362 kts | 87° |
| 2026-04-29 12:16 | -13.39782 | -72.12994 | 26003 ft | 353 kts | 87° |
| 2026-04-29 12:16 | -13.39661 | -72.10457 | 25521 ft | 350 kts | 88° |
| 2026-04-29 12:16 | -13.39542 | -72.08006 | 25067 ft | 346 kts | 88° |
| 2026-04-29 12:16 | -13.39421 | -72.05521 | 24602 ft | 343 kts | 88° |
| 2026-04-29 12:17 | -13.39301 | -72.03082 | 24166 ft | 340 kts | 88° |
| 2026-04-29 12:17 | -13.39184 | -72.00694 | 23682 ft | 337 kts | 88° |
| 2026-04-29 12:17 | -13.39068 | -71.98300 | 23260 ft | 335 kts | 88° |
| 2026-04-29 12:17 | -13.38951 | -71.95878 | 22837 ft | 335 kts | 88° |
| 2026-04-29 12:18 | -13.38836 | -71.93494 | 22433 ft | 333 kts | 88° |
| 2026-04-29 12:18 | -13.38725 | -71.91154 | 22045 ft | 332 kts | 88° |
| 2026-04-29 12:18 | -13.38613 | -71.88792 | 21641 ft | 330 kts | 88° |
| 2026-04-29 12:18 | -13.38499 | -71.86440 | 21242 ft | 329 kts | 88° |
| 2026-04-29 12:19 | -13.38386 | -71.84093 | 20835 ft | 329 kts | 88° |
| 2026-04-29 12:19 | -13.38273 | -71.81758 | 20553 ft | 324 kts | 88° |
| 2026-04-29 12:19 | -13.38162 | -71.79477 | 20371 ft | 316 kts | 88° |
| 2026-04-29 12:19 | -13.38054 | -71.77245 | 20186 ft | 310 kts | 88° |
| 2026-04-29 12:20 | -13.38033 | -71.75037 | 20030 ft | 309 kts | 96° |
| 2026-04-29 12:20 | -13.38482 | -71.72893 | 19662 ft | 306 kts | 110° |
| 2026-04-29 12:20 | -13.39406 | -71.70920 | 19239 ft | 306 kts | 123° |
| 2026-04-29 12:20 | -13.40723 | -71.69235 | 18896 ft | 300 kts | 135° |
| 2026-04-29 12:21 | -13.42350 | -71.67901 | 18303 ft | 299 kts | 148° |
| 2026-04-29 12:21 | -13.44226 | -71.66991 | 17881 ft | 299 kts | 161° |
| 2026-04-29 12:21 | -13.46254 | -71.66516 | 17216 ft | 301 kts | 174° |
| 2026-04-29 12:21 | -13.48329 | -71.66545 | 16648 ft | 296 kts | 187° |
| 2026-04-29 12:22 | -13.50319 | -71.67043 | 16213 ft | 294 kts | 200° |
| 2026-04-29 12:22 | -13.52146 | -71.67963 | 15840 ft | 292 kts | 213° |
| 2026-04-29 12:22 | -13.53730 | -71.69216 | 15487 ft | 282 kts | 219° |
| 2026-04-29 12:22 | -13.55216 | -71.70482 | 15124 ft | 273 kts | 219° |
| 2026-04-29 12:23 | -13.56623 | -71.71749 | 14775 ft | 265 kts | 227° |
| 2026-04-29 12:23 | -13.57675 | -71.73259 | 14450 ft | 257 kts | 243° |
| 2026-04-29 12:23 | -13.58290 | -71.74964 | 14120 ft | 250 kts | 258° |
| 2026-04-29 12:23 | -13.58456 | -71.76717 | 13851 ft | 246 kts | 272° |
| 2026-04-29 12:24 | -13.58203 | -71.78442 | 13570 ft | 244 kts | 287° |
| 2026-04-29 12:24 | -13.57608 | -71.80046 | 13230 ft | 235 kts | 292° |
| 2026-04-29 12:24 | -13.56997 | -71.81568 | 12815 ft | 225 kts | 292° |
| 2026-04-29 12:24 | -13.56464 | -71.83010 | 12664 ft | 205 kts | 289° |
| 2026-04-29 12:25 | -13.56013 | -71.84361 | 12387 ft | 199 kts | 288° |
| 2026-04-29 12:25 | -13.55593 | -71.85664 | 12239 ft | 180 kts | 293° |
| 2026-04-29 12:25 | -13.54449 | -71.87868 | 11783 ft | 173 kts | 292° |
| 2026-04-29 12:26 | -13.54111 | -71.89059 | 11287 ft | 174 kts | 280° |
| 2026-04-29 12:26 | -13.53946 | -71.90260 | 11087 ft | 168 kts | 276° |
| 2026-04-29 12:26 | -13.53816 | -71.91447 | 10915 ft | 167 kts | 276° |
| 2026-04-29 12:26 | -13.53704 | -71.92634 | 10728 ft | 165 kts | 275° |
| 2026-04-29 12:27 | -13.53603 | -71.93653 | 10758 ft | 106 kts | 276° |
| 2026-04-29 12:27 | -13.53550 | -71.94147 | 10783 ft | 31 kts | 277° |
| 2026-04-29 12:27 | -13.53531 | -71.94298 | 10793 ft | 8 kts | 268° |
| 2026-04-29 12:27 | -13.53558 | -71.94338 | 10794 ft | 10 kts | 200° |
| 2026-04-29 12:28 | -13.53603 | -71.94344 | 10798 ft | 1 kts | 186° |
| 2026-04-29 12:28 | -13.53615 | -71.94345 | 10796 ft | 0 kts | 186° |
| 2026-04-29 12:30 | -13.53616 | -71.94345 | 10796 ft | 1 kts | 186° |
| 2026-04-29 12:30 | -13.53652 | -71.94362 | 10796 ft | 9 kts | 223° |
| 2026-04-29 12:30 | -13.53661 | -71.94417 | 10797 ft | 10 kts | 276° |
| 2026-04-29 12:30 | -13.53686 | -71.94445 | 10805 ft | 5 kts | 159° |
| 2026-04-29 12:31 | -13.53727 | -71.94420 | 10797 ft | 9 kts | 144° |
| 2026-04-29 12:31 | -13.53746 | -71.94405 | 10799 ft | 0 kts | 143° |